createdAt,value
2019-04-25T14:36:27.151Z,100779.41
2019-04-25T14:38:57.642Z,100782.20
2019-04-25T14:41:30.252Z,100781.95
2019-04-25T14:44:01.666Z,100777.69
2019-04-25T14:46:32.891Z,100772.39
2019-04-25T14:49:02.882Z,100768.11
2019-04-25T14:51:34.385Z,100775.55
2019-04-25T14:54:08.408Z,100787.08
2019-04-25T14:56:40.972Z,100784.64
2019-04-25T14:59:12.363Z,100787.16
2019-04-25T15:01:45.372Z,100789.33
2019-04-25T15:04:17.354Z,100795.52
2019-04-25T15:06:49.485Z,100799.81
2019-04-25T15:09:20.314Z,100788.63
2019-04-25T15:11:52.566Z,100791.09
2019-04-25T15:14:25.257Z,100797.06
2019-04-25T15:16:56.546Z,100787.64
2019-04-25T15:19:27.631Z,100791.19
2019-04-25T15:22:05.665Z,100792.06
2019-04-25T15:24:37.683Z,100796.31
2019-04-25T15:27:09.402Z,100795.58
2019-04-25T15:29:51.300Z,100804.05
2019-04-25T15:33:16.508Z,100808.20
2019-04-25T15:35:48.913Z,100808.66
2019-04-25T15:38:22.327Z,100804.09
2019-04-25T15:40:52.916Z,100798.45
2019-04-25T15:43:26.320Z,100799.59
2019-04-25T15:45:59.003Z,100789.83
2019-04-25T15:48:37.837Z,100789.77
2019-04-25T15:51:10.541Z,100786.34
2019-04-25T15:53:42.906Z,100794.22
2019-04-25T15:56:13.956Z,100787.40
2019-04-25T15:58:45.321Z,100779.97
2019-04-25T16:01:15.806Z,100777.27
2019-04-25T16:03:47.235Z,100775.57
2019-04-25T16:06:18.341Z,100777.33
2019-04-25T16:08:51.009Z,100776.77
2019-04-25T16:11:22.227Z,100770.94
2019-04-25T16:13:55.913Z,100778.41
2019-04-25T16:16:30.872Z,100766.81
2019-04-25T16:19:01.978Z,100756.08
2019-04-25T16:21:33.899Z,100758.38
2019-04-25T16:24:05.419Z,100758.53
2019-04-25T16:26:35.676Z,100751.01
2019-04-25T16:29:07.870Z,100743.38
2019-04-25T16:31:39.479Z,100744.08
2019-04-25T16:34:15.378Z,100743.08
2019-04-25T16:36:46.994Z,100741.75
2019-04-25T16:39:19.967Z,100741.72
2019-04-25T16:41:51.415Z,100734.90
2019-04-25T16:44:24.953Z,100731.63
2019-04-25T16:46:56.956Z,100731.54
2019-04-25T16:49:29.835Z,100730.58
2019-04-25T16:52:01.695Z,100729.70
2019-04-25T16:54:33.870Z,100732.89
2019-04-25T16:57:06.735Z,100721.33
2019-04-25T16:59:39.348Z,100717.88
2019-04-25T17:02:12.543Z,100707.81
2019-04-25T17:04:45.368Z,100708.30
2019-04-25T17:07:16.759Z,100700.70
2019-04-25T17:09:48.404Z,100703.86
2019-04-25T17:12:19.698Z,100704.70
2019-04-25T17:14:50.929Z,100707.14
2019-04-25T17:17:24.020Z,100704.32
2019-04-25T17:19:58.134Z,100699.41
2019-04-25T17:22:30.746Z,100696.95
2019-04-25T17:25:04.734Z,100694.41
2019-04-25T17:27:37.528Z,100699.32
2019-04-25T17:30:10.287Z,100691.21
2019-04-25T17:32:50.326Z,100690.39
2019-04-25T17:35:17.216Z,100678.34
2019-04-25T17:37:49.941Z,100677.28
2019-04-25T17:40:22.474Z,100670.09
2019-04-25T17:42:54.126Z,100667.80
2019-04-25T17:45:26.796Z,100668.36
2019-04-25T17:47:58.492Z,100669.52
2019-04-25T17:50:30.235Z,100673.06
2019-04-25T17:53:05.466Z,100668.44
2019-04-25T17:55:39.567Z,100663.44
2019-04-25T17:58:11.532Z,100669.08
2019-04-25T18:00:45.043Z,100668.52
2019-04-25T18:03:16.493Z,100665.22
2019-04-25T18:05:48.901Z,100660.02
2019-04-25T18:08:20.651Z,100658.16
2019-04-25T18:10:53.442Z,100663.33
2019-04-25T18:13:25.813Z,100662.84
2019-04-25T18:15:58.565Z,100664.30
2019-04-25T18:18:35.367Z,100659.48
2019-04-25T18:21:07.156Z,100657.98
2019-04-25T18:23:42.630Z,100660.97
2019-04-25T18:26:16.410Z,100668.84
2019-04-25T18:28:49.029Z,100672.34
2019-04-25T18:31:22.763Z,100678.33
2019-04-25T18:33:54.985Z,100670.88
2019-04-25T18:36:27.886Z,100677.66
2019-04-25T18:39:04.482Z,100668.16
2019-04-25T18:41:37.714Z,100678.86
2019-04-25T18:44:10.749Z,100675.72
2019-04-25T18:46:44.666Z,100681.70
2019-04-25T18:49:17.296Z,100677.98
2019-04-25T18:51:57.477Z,100673.70
2019-04-25T18:54:24.234Z,100674.59
2019-04-25T18:56:56.952Z,100678.00
2019-04-25T18:59:32.757Z,100670.47
2019-04-25T19:02:05.185Z,100672.72
2019-04-25T19:04:38.338Z,100662.41
2019-04-25T19:07:21.937Z,100661.56
2019-04-25T19:09:43.070Z,100658.85
2019-04-25T19:12:14.743Z,100658.34
2019-04-25T19:14:47.938Z,100653.14
2019-04-25T19:17:19.587Z,100648.83
2019-04-25T19:19:51.970Z,100648.45
2019-04-25T19:22:23.835Z,100645.33
2019-04-25T19:24:55.903Z,100643.53
2019-04-25T19:27:28.696Z,100637.61
2019-04-25T19:30:03.297Z,100639.66
2019-04-25T19:32:34.389Z,100641.84
2019-04-25T19:35:05.877Z,100641.76
2019-04-25T19:37:37.366Z,100640.17
2019-04-25T19:40:08.728Z,100637.84
2019-04-25T19:42:44.657Z,100634.59
2019-04-25T19:45:16.015Z,100626.46
2019-04-25T19:47:47.094Z,100627.16
2019-04-25T19:50:18.564Z,100622.36
2019-04-25T19:52:50.662Z,100617.09
2019-04-25T19:55:21.593Z,100617.19
2019-04-25T19:57:52.660Z,100616.02
2019-04-25T20:00:23.943Z,100617.22
2019-04-25T20:02:56.904Z,100613.15
2019-04-25T20:05:29.365Z,100606.16
2019-04-25T20:08:02.467Z,100608.77
2019-04-25T20:10:35.236Z,100603.91
2019-04-25T20:13:13.134Z,100600.22
2019-04-25T20:15:45.523Z,100600.78
2019-04-25T20:18:16.487Z,100604.67
2019-04-25T20:20:48.326Z,100606.77
2019-04-25T20:23:20.079Z,100600.10
2019-04-25T20:25:51.492Z,100597.85
2019-04-25T20:28:23.102Z,100600.78
2019-04-25T20:30:54.679Z,100589.98
2019-04-25T20:33:26.370Z,100594.66
2019-04-25T20:35:57.835Z,100593.17
2019-04-25T20:38:32.049Z,100591.36
2019-04-25T20:41:10.768Z,100590.98
2019-04-25T20:43:42.811Z,100598.00
2019-04-25T20:46:14.523Z,100594.17
2019-04-25T20:48:48.108Z,100594.81
2019-04-25T20:51:19.915Z,100597.27
2019-04-25T20:53:51.010Z,100596.45
2019-04-25T20:56:22.637Z,100599.45
2019-04-25T20:58:53.879Z,100598.95
2019-04-25T21:01:25.064Z,100599.41
2019-04-25T21:03:55.316Z,100598.73
2019-04-25T21:06:29.972Z,100588.38
2019-04-25T21:09:02.266Z,100596.95
2019-04-25T21:11:33.875Z,100597.90
2019-04-25T21:14:04.749Z,100603.77
2019-04-25T21:16:37.556Z,100608.25
2019-04-25T21:19:10.029Z,100601.59
2019-04-25T21:21:41.798Z,100605.12
2019-04-25T21:24:12.460Z,100609.75
2019-04-25T21:26:43.980Z,100608.95
2019-04-25T21:29:15.341Z,100612.78
2019-04-25T21:31:51.155Z,100622.11
2019-04-25T21:34:26.714Z,100627.61
2019-04-25T21:36:57.601Z,100622.32
2019-04-25T21:39:30.616Z,100631.38
2019-04-25T21:42:04.575Z,100632.26
2019-04-25T21:44:36.151Z,100627.18
2019-04-25T21:47:08.614Z,100625.86
2019-04-25T21:49:40.257Z,100628.45
2019-04-25T21:52:11.556Z,100640.23
2019-04-25T21:54:43.233Z,100638.62
2019-04-25T21:57:14.340Z,100633.00
2019-04-25T21:59:45.929Z,100627.79
2019-04-25T22:02:17.863Z,100621.23
2019-04-25T22:04:56.634Z,100622.22
2019-04-25T22:07:29.746Z,100627.13
2019-04-25T22:10:01.852Z,100628.73
2019-04-25T22:12:35.061Z,100623.35
2019-04-25T22:15:08.994Z,100620.73
2019-04-25T22:17:40.540Z,100623.18
2019-04-25T22:20:11.946Z,100623.18
2019-04-25T22:22:43.326Z,100626.46
2019-04-25T22:25:14.521Z,100624.79
2019-04-25T22:27:46.460Z,100630.47
2019-04-25T22:30:28.725Z,100626.63
2019-04-25T22:33:01.603Z,100630.09
2019-04-25T22:35:35.269Z,100632.69
2019-04-25T22:38:07.116Z,100640.17
2019-04-25T22:40:41.489Z,100638.59
